Time;durP1;ratioP1;P1;durP2;ratioP2;P2;SDS_P1;SDS_P2;PMS_P1;PMS_P2;Temp;Humidity;BMP_temperature;BMP_pressure;BME280_temperature;BME280_humidity;BME280_pressure;Samples;Min_cycle;Max_cycle;Signal;HPM_P1;HPM_P2
2021/04/09 00:00:45;;;;;;;4.10;2.20;;;7.60;43.00;;;;;;10055790;28;20311;-62
2021/04/09 00:05:36;;;;;;;3.47;2.70;;;7.60;43.10;;;;;;10054292;28;20043;-61
2021/04/09 00:10:28;;;;;;;5.97;3.08;;;7.60;43.40;;;;;;10057557;28;20127;-70
2021/04/09 00:15:19;;;;;;;3.50;2.80;;;7.50;43.80;;;;;;10064571;28;20402;-65
2021/04/09 00:20:17;;;;;;;6.55;3.30;;;7.40;44.10;;;;;;10073634;28;20040;-62
2021/04/09 00:25:10;;;;;;;6.63;3.70;;;7.40;44.40;;;;;;10079824;28;20021;-60
2021/04/09 00:30:01;;;;;;;5.88;3.08;;;7.40;44.40;;;;;;10069641;28;20040;-69
2021/04/09 00:34:51;;;;;;;10.23;4.00;;;7.30;44.60;;;;;;10063792;28;20048;-61
2021/04/09 00:39:42;;;;;;;5.97;3.70;;;7.20;45.00;;;;;;10062919;28;20071;-60
2021/04/09 00:44:33;;;;;;;7.07;3.85;;;7.20;45.00;;;;;;10057634;28;21486;-61
2021/04/09 00:49:24;;;;;;;8.32;4.72;;;7.20;45.30;;;;;;10052196;28;20125;-62
2021/04/09 00:54:14;;;;;;;16.38;7.10;;;7.20;45.40;;;;;;10035146;28;20036;-62
2021/04/09 00:59:05;;;;;;;18.02;9.25;;;7.10;45.50;;;;;;10054672;28;20297;-63
2021/04/09 01:03:56;;;;;;;14.27;9.40;;;6.90;45.90;;;;;;10054283;28;20472;-61
2021/04/09 01:08:47;;;;;;;13.38;8.52;;;6.90;45.80;;;;;;10054045;28;20028;-64
2021/04/09 01:13:39;;;;;;;11.35;6.40;;;6.90;45.90;;;;;;10055587;28;20037;-62
2021/04/09 01:18:41;;;;;;;6.88;3.67;;;6.90;45.90;;;;;;10053495;28;20394;-61
2021/04/09 01:23:48;;;;;;;7.32;3.45;;;6.80;46.40;;;;;;10052438;28;20043;-61
2021/04/09 01:29:07;;;;;;;4.75;2.92;;;6.80;46.50;;;;;;10050459;28;20032;-62
2021/04/09 01:34:00;;;;;;;5.10;3.28;;;6.70;46.60;;;;;;10057848;28;20064;-64
2021/04/09 01:39:00;;;;;;;5.10;2.97;;;6.70;46.80;;;;;;10057393;28;20098;-63
2021/04/09 01:43:52;;;;;;;3.97;2.40;;;6.70;47.00;;;;;;10058780;28;20032;-66
2021/04/09 01:48:47;;;;;;;4.55;2.28;;;6.60;47.40;;;;;;10057437;28;20551;-64
2021/04/09 01:53:40;;;;;;;7.22;2.58;;;6.60;47.40;;;;;;10056449;28;20034;-61
2021/04/09 01:58:31;;;;;;;4.68;2.80;;;6.60;47.50;;;;;;10057441;28;20040;-68
2021/04/09 02:03:23;;;;;;;4.13;2.38;;;6.40;47.70;;;;;;10062522;28;20663;-63
2021/04/09 02:08:15;;;;;;;4.20;2.08;;;6.30;48.00;;;;;;10056936;28;20037;-61
2021/04/09 02:13:08;;;;;;;6.03;2.60;;;6.40;48.20;;;;;;10052765;28;20029;-61
2021/04/09 02:17:59;;;;;;;6.65;2.88;;;6.40;48.20;;;;;;10052876;28;20033;-61
2021/04/09 02:22:52;;;;;;;5.80;2.90;;;6.40;48.20;;;;;;10052027;28;20150;-60
2021/04/09 02:27:48;;;;;;;4.10;2.67;;;6.30;48.10;;;;;;10054265;28;20111;-65
2021/04/09 02:32:39;;;;;;;4.60;2.75;;;6.10;48.40;;;;;;10059795;28;20056;-61
2021/04/09 02:37:30;;;;;;;7.05;2.97;;;6.10;48.50;;;;;;10070920;28;20051;-65
2021/04/09 02:42:21;;;;;;;5.22;3.00;;;6.10;48.80;;;;;;10069501;28;20040;-66
2021/04/09 02:47:20;;;;;;;4.35;2.45;;;6.10;48.90;;;;;;10054769;28;20548;-64
2021/04/09 02:52:23;;;;;;;5.47;2.28;;;6.00;49.00;;;;;;10060048;28;20046;-62
2021/04/09 02:57:15;;;;;;;4.88;3.13;;;6.00;48.90;;;;;;10054442;28;20072;-67
2021/04/09 03:02:06;;;;;;;7.05;3.17;;;6.00;49.10;;;;;;10057861;28;20044;-61
2021/04/09 03:06:58;;;;;;;6.18;2.55;;;6.00;49.40;;;;;;10064200;28;20036;-62
2021/04/09 03:11:49;;;;;;;4.18;2.70;;;6.10;49.10;;;;;;10043130;28;20037;-68
2021/04/09 03:17:02;;;;;;;3.92;2.38;;;6.00;49.20;;;;;;10059253;28;20190;-75
2021/04/09 03:21:53;;;;;;;6.45;2.63;;;6.00;49.50;;;;;;10063791;28;20090;-62
2021/04/09 03:26:44;;;;;;;3.88;2.42;;;5.90;49.50;;;;;;10072285;28;20493;-61
2021/04/09 03:31:35;;;;;;;2.47;2.20;;;5.90;49.60;;;;;;10067744;28;20067;-63
2021/04/09 03:36:26;;;;;;;3.88;2.50;;;5.90;49.80;;;;;;10072996;28;20044;-62
2021/04/09 03:41:17;;;;;;;4.20;2.03;;;5.80;50.00;;;;;;10058999;28;20441;-68
2021/04/09 03:46:08;;;;;;;4.80;2.55;;;5.90;50.00;;;;;;10072187;28;20036;-61
2021/04/09 03:50:58;;;;;;;6.88;2.55;;;5.90;50.20;;;;;;10064618;28;20595;-61
2021/04/09 03:55:49;;;;;;;4.90;3.63;;;5.90;50.10;;;;;;10058755;28;20528;-61
2021/04/09 04:00:40;;;;;;;5.82;2.88;;;5.80;50.20;;;;;;10058172;28;20063;-64
2021/04/09 04:05:30;;;;;;;5.47;2.83;;;5.80;50.40;;;;;;10059128;28;20108;-61
2021/04/09 04:10:21;;;;;;;3.67;2.53;;;5.80;50.40;;;;;;10058569;28;20414;-65
2021/04/09 04:15:12;;;;;;;4.32;2.90;;;5.60;51.00;;;;;;10056749;28;20039;-64
2021/04/09 04:20:05;;;;;;;3.40;2.70;;;5.60;51.00;;;;;;10055507;28;20040;-62
2021/04/09 04:24:56;;;;;;;4.38;2.47;;;5.60;51.00;;;;;;10054431;28;20055;-62
2021/04/09 04:29:46;;;;;;;2.55;2.17;;;5.60;50.90;;;;;;10037801;28;20043;-63
2021/04/09 04:34:37;;;;;;;4.00;2.00;;;5.60;51.10;;;;;;10055352;28;20044;-70
2021/04/09 04:39:28;;;;;;;5.32;2.10;;;5.60;51.10;;;;;;10056980;28;20036;-65
2021/04/09 04:44:19;;;;;;;4.30;2.50;;;5.50;51.40;;;;;;10062337;28;20028;-61
2021/04/09 04:49:10;;;;;;;4.88;2.72;;;5.70;50.80;;;;;;10069571;28;20573;-71
2021/04/09 04:54:01;;;;;;;5.70;2.35;;;5.70;51.30;;;;;;10077371;28;20028;-65
2021/04/09 04:58:51;;;;;;;2.85;1.98;;;5.60;51.30;;;;;;10058959;28;20144;-62
2021/04/09 05:03:43;;;;;;;4.72;2.72;;;5.50;51.60;;;;;;10063098;28;20571;-68
2021/04/09 05:08:33;;;;;;;3.17;2.70;;;5.60;51.70;;;;;;10064044;28;20545;-68
2021/04/09 05:13:24;;;;;;;5.18;2.22;;;5.60;51.80;;;;;;10054248;28;20032;-70
2021/04/09 05:18:15;;;;;;;5.22;2.88;;;5.50;52.10;;;;;;10049250;28;20060;-65
2021/04/09 05:23:06;;;;;;;3.22;2.55;;;5.60;52.00;;;;;;10052153;28;20538;-64
2021/04/09 05:27:56;;;;;;;3.78;2.20;;;5.60;52.10;;;;;;10049268;28;20453;-61
2021/04/09 05:32:48;;;;;;;3.05;2.00;;;5.70;52.30;;;;;;10053166;28;20059;-62
2021/04/09 05:37:39;;;;;;;3.45;2.22;;;5.80;52.00;;;;;;10051761;28;20036;-65
2021/04/09 05:42:29;;;;;;;4.25;1.98;;;5.90;52.20;;;;;;10052983;28;20033;-64
2021/04/09 05:47:20;;;;;;;7.50;2.22;;;5.90;52.20;;;;;;10052705;28;20031;-62
2021/04/09 05:52:11;;;;;;;4.30;2.33;;;6.00;52.10;;;;;;10050295;28;20036;-64
2021/04/09 05:57:02;;;;;;;3.70;2.50;;;6.10;51.90;;;;;;10049923;28;20481;-61
2021/04/09 06:01:53;;;;;;;3.42;2.05;;;6.10;52.10;;;;;;10049405;28;20036;-62
2021/04/09 06:06:44;;;;;;;4.15;2.08;;;6.10;52.40;;;;;;10050860;28;20626;-61
2021/04/09 06:11:35;;;;;;;4.22;2.35;;;6.30;52.50;;;;;;10048912;28;20151;-70
2021/04/09 06:16:26;;;;;;;4.40;2.22;;;6.30;52.30;;;;;;10049505;28;20098;-62
2021/04/09 06:21:17;;;;;;;4.22;2.45;;;6.40;51.90;;;;;;10048484;28;20032;-65
2021/04/09 06:26:08;;;;;;;5.10;2.35;;;6.50;51.80;;;;;;10049008;28;20034;-62
2021/04/09 06:30:59;;;;;;;3.90;2.55;;;6.60;51.80;;;;;;10047434;28;20433;-65
2021/04/09 06:35:49;;;;;;;3.67;2.85;;;6.60;51.90;;;;;;10046288;28;20253;-70
2021/04/09 06:40:41;;;;;;;3.67;2.40;;;6.80;51.40;;;;;;10048380;28;20263;-77
2021/04/09 06:45:32;;;;;;;5.35;2.97;;;6.80;51.60;;;;;;10053757;28;20286;-65
2021/04/09 06:50:23;;;;;;;3.40;2.13;;;6.90;51.50;;;;;;10052715;28;20028;-60
2021/04/09 06:55:18;;;;;;;3.47;2.30;;;7.00;51.50;;;;;;10051070;28;20041;-65
2021/04/09 07:00:11;;;;;;;4.90;2.33;;;7.10;51.50;;;;;;10055600;28;20074;-66
2021/04/09 07:05:02;;;;;;;3.40;2.50;;;7.10;51.20;;;;;;10055551;28;20035;-63
2021/04/09 07:09:53;;;;;;;6.40;2.92;;;7.30;50.90;;;;;;10053919;28;21573;-71
2021/04/09 07:15:08;;;;;;;8.00;3.50;;;7.40;50.80;;;;;;10036098;28;20040;-73
2021/04/09 07:20:11;;;;;;;4.10;2.45;;;7.50;50.70;;;;;;10031841;28;20053;-66
2021/04/09 07:25:13;;;;;;;5.13;2.70;;;7.50;50.60;;;;;;10055710;28;20021;-71
2021/04/09 07:30:06;;;;;;;4.57;2.85;;;7.60;50.60;;;;;;10038467;28;20055;-72
2021/04/09 07:35:00;;;;;;;3.65;2.60;;;7.70;50.60;;;;;;10067655;28;20118;-72
2021/04/09 07:40:01;;;;;;;6.38;3.35;;;7.90;50.20;;;;;;10053512;28;21314;-61
2021/04/09 07:44:59;;;;;;;6.55;2.28;;;8.00;50.00;;;;;;10053291;28;20021;-66
2021/04/09 07:50:03;;;;;;;6.18;2.78;;;8.10;49.70;;;;;;10051956;28;20029;-63
2021/04/09 07:54:54;;;;;;;4.88;2.65;;;8.30;49.50;;;;;;10068320;28;20036;-64
2021/04/09 07:59:45;;;;;;;3.88;2.40;;;8.60;49.00;;;;;;10054276;28;20041;-62
2021/04/09 08:04:39;;;;;;;4.63;2.60;;;8.70;48.60;;;;;;10054599;28;20131;-64
2021/04/09 08:09:47;;;;;;;7.57;2.60;;;8.70;48.60;;;;;;10053485;28;20047;-63
2021/04/09 08:14:38;;;;;;;4.30;2.30;;;8.90;48.20;;;;;;10021548;28;20032;-62
2021/04/09 08:19:29;;;;;;;3.92;2.85;;;9.20;48.00;;;;;;10028691;28;20059;-63
2021/04/09 08:24:22;;;;;;;4.95;2.72;;;9.30;47.60;;;;;;10030335;28;20029;-64
2021/04/09 08:29:15;;;;;;;3.83;2.22;;;9.40;47.50;;;;;;10026597;28;20041;-60
2021/04/09 08:34:12;;;;;;;2.95;2.17;;;9.50;47.30;;;;;;10027031;28;20155;-63
2021/04/09 08:39:05;;;;;;;3.45;2.28;;;9.60;47.00;;;;;;10030975;28;20041;-70
2021/04/09 08:43:56;;;;;;;5.78;2.25;;;9.80;46.70;;;;;;10024411;28;20033;-66
2021/04/09 08:48:49;;;;;;;3.42;2.03;;;10.00;46.10;;;;;;10029351;28;20074;-63
2021/04/09 08:53:40;;;;;;;4.22;2.20;;;10.30;45.90;;;;;;10006912;28;20033;-63
2021/04/09 08:58:45;;;;;;;5.55;2.35;;;10.60;45.40;;;;;;10041591;28;20099;-63
2021/04/09 09:03:36;;;;;;;5.53;2.70;;;10.80;44.60;;;;;;10030196;28;20035;-65
2021/04/09 09:08:42;;;;;;;6.18;2.78;;;11.00;44.80;;;;;;10030393;28;20032;-65
2021/04/09 09:13:41;;;;;;;6.20;2.70;;;11.30;44.10;;;;;;10025409;28;20413;-68
2021/04/09 09:18:31;;;;;;;7.75;3.13;;;11.30;44.20;;;;;;10008248;28;20048;-62
2021/04/09 09:23:22;;;;;;;5.82;3.33;;;11.60;44.10;;;;;;10007572;28;20052;-64
2021/04/09 09:28:17;;;;;;;8.82;3.20;;;11.80;43.70;;;;;;10027665;28;20056;-62
2021/04/09 09:33:23;;;;;;;7.50;3.20;;;12.00;43.30;;;;;;10023915;28;20231;-67
2021/04/09 09:38:47;;;;;;;9.85;3.05;;;12.00;42.80;;;;;;10027855;28;20086;-61
2021/04/09 09:43:41;;;;;;;5.00;3.10;;;12.00;42.60;;;;;;10024399;28;20032;-72
2021/04/09 09:48:32;;;;;;;9.20;3.75;;;12.20;42.70;;;;;;10024869;28;20513;-69
2021/04/09 09:53:24;;;;;;;5.20;2.92;;;12.50;42.40;;;;;;10025012;28;20036;-69
2021/04/09 09:58:30;;;;;;;5.40;3.15;;;12.80;42.10;;;;;;10028445;28;20249;-64
2021/04/09 10:03:22;;;;;;;;;;;12.80;41.80;;;;;;10005611;28;21119;-65
2021/04/09 10:08:13;;;;;;;7.60;2.85;;;13.00;41.00;;;;;;10024623;28;19916;-66
2021/04/09 10:13:24;;;;;;;5.95;3.00;;;13.00;41.70;;;;;;10007535;28;20587;-63
2021/04/09 10:18:15;;;;;;;4.07;2.70;;;13.30;40.80;;;;;;10022561;28;20086;-64
2021/04/09 10:23:06;;;;;;;5.93;3.42;;;13.50;40.90;;;;;;10004635;28;20016;-64
2021/04/09 10:27:57;;;;;;;4.28;2.60;;;13.70;40.70;;;;;;10025959;28;20438;-65
2021/04/09 10:32:52;;;;;;;5.30;2.25;;;13.90;40.40;;;;;;10022972;28;20573;-62
2021/04/09 10:37:46;;;;;;;4.30;2.83;;;13.90;40.00;;;;;;10039026;28;21426;-69
2021/04/09 10:42:37;;;;;;;5.88;2.92;;;14.10;39.60;;;;;;10027089;28;20032;-66
2021/04/09 10:47:30;;;;;;;5.03;2.30;;;14.30;39.10;;;;;;10038654;28;20522;-63
2021/04/09 10:52:21;;;;;;;4.65;2.38;;;14.30;38.80;;;;;;10032697;28;20079;-65
2021/04/09 10:57:15;;;;;;;6.13;2.60;;;14.60;38.50;;;;;;10041489;28;20062;-64
2021/04/09 11:02:09;;;;;;;7.35;2.60;;;14.70;38.00;;;;;;10023527;28;20032;-68
2021/04/09 11:07:01;;;;;;;3.53;1.92;;;14.90;37.60;;;;;;10024693;28;20582;-65
2021/04/09 11:11:52;;;;;;;3.33;1.83;;;15.20;37.20;;;;;;10023374;28;20067;-66
2021/04/09 11:16:56;;;;;;;5.40;2.55;;;15.10;36.70;;;;;;10024023;28;20024;-70
2021/04/09 11:21:49;;;;;;;4.38;2.78;;;15.30;36.40;;;;;;10024004;28;20681;-64
2021/04/09 11:26:40;;;;;;;3.97;1.85;;;15.60;36.10;;;;;;10024216;28;20135;-69
2021/04/09 11:31:32;;;;;;;6.10;2.08;;;15.90;35.90;;;;;;10023141;28;20044;-63
2021/04/09 11:36:24;;;;;;;4.05;2.20;;;16.00;35.60;;;;;;10023974;28;20057;-67
2021/04/09 11:41:25;;;;;;;4.75;1.85;;;15.90;35.40;;;;;;10037011;28;20033;-65
2021/04/09 11:46:34;;;;;;;6.50;1.70;;;15.90;35.70;;;;;;10028491;28;20382;-69
2021/04/09 11:51:25;;;;;;;4.90;1.70;;;16.00;34.40;;;;;;10029418;28;21624;-68
2021/04/09 11:56:15;;;;;;;3.85;1.65;;;16.30;34.50;;;;;;10030313;28;20037;-77
2021/04/09 12:01:07;;;;;;;3.55;2.00;;;16.50;34.30;;;;;;10028477;28;20115;-68
2021/04/09 12:06:31;;;;;;;7.75;2.53;;;16.40;34.00;;;;;;10012330;28;20110;-60
2021/04/09 12:11:23;;;;;;;6.07;1.90;;;16.60;33.80;;;;;;10027121;28;20516;-63
2021/04/09 12:16:14;;;;;;;3.63;1.70;;;16.60;33.80;;;;;;10027529;28;20032;-63
2021/04/09 12:21:05;;;;;;;3.00;1.88;;;16.40;33.60;;;;;;10028353;28;20505;-64
2021/04/09 12:25:57;;;;;;;3.45;2.17;;;16.60;33.40;;;;;;10030520;28;20041;-60
2021/04/09 12:30:48;;;;;;;6.07;1.77;;;17.10;33.20;;;;;;10025970;28;20044;-62
2021/04/09 12:35:39;;;;;;;4.57;1.50;;;17.80;32.60;;;;;;10027607;28;20048;-66
2021/04/09 12:40:30;;;;;;;3.78;2.35;;;17.90;32.60;;;;;;10025948;28;20640;-67
2021/04/09 12:45:21;;;;;;;4.72;1.95;;;18.10;32.40;;;;;;10027729;28;20036;-64
2021/04/09 12:50:12;;;;;;;3.83;1.80;;;18.30;32.30;;;;;;10027864;28;20482;-61
2021/04/09 12:55:04;;;;;;;3.47;1.77;;;18.70;32.10;;;;;;10026438;28;20032;-63
2021/04/09 12:59:55;;;;;;;4.68;1.60;;;19.20;31.90;;;;;;10042303;28;20539;-63
2021/04/09 13:04:46;;;;;;;3.95;1.70;;;19.70;32.20;;;;;;10026094;28;20040;-64
2021/04/09 13:09:37;;;;;;;5.82;2.42;;;20.20;32.40;;;;;;10026019;28;20051;-64
2021/04/09 13:14:27;;;;;;;5.07;1.80;;;20.80;32.00;;;;;;10022530;28;20024;-65
2021/04/09 13:19:18;;;;;;;3.70;2.25;;;21.00;31.10;;;;;;10024751;28;20077;-62
2021/04/09 13:24:11;;;;;;;4.72;1.80;;;22.30;30.60;;;;;;10026173;28;20036;-67
2021/04/09 13:29:01;;;;;;;5.27;1.50;;;23.60;29.30;;;;;;10024970;28;20404;-66
2021/04/09 13:33:52;;;;;;;2.33;1.48;;;23.20;28.90;;;;;;10026902;28;20060;-70
2021/04/09 13:38:43;;;;;;;5.45;1.63;;;23.90;27.90;;;;;;10007340;28;21540;-63
2021/04/09 13:43:34;;;;;;;3.67;1.73;;;23.10;28.00;;;;;;10005561;28;20094;-66
2021/04/09 13:48:25;;;;;;;3.58;1.42;;;22.30;27.90;;;;;;10025725;28;20653;-61
2021/04/09 13:53:17;;;;;;;4.03;1.45;;;21.40;28.30;;;;;;10006104;28;20117;-63
2021/04/09 13:58:07;;;;;;;1.20;1.10;;;20.60;28.30;;;;;;10024584;28;20045;-60
2021/04/09 14:02:59;;;;;;;2.75;1.35;;;20.50;28.20;;;;;;10024880;28;20036;-61
2021/04/09 14:07:50;;;;;;;1.83;1.27;;;21.00;27.80;;;;;;10024135;28;20092;-64
2021/04/09 14:12:42;;;;;;;2.35;1.20;;;22.90;26.90;;;;;;10023492;28;20078;-64
2021/04/09 14:17:33;;;;;;;2.88;1.50;;;23.30;26.40;;;;;;10024129;28;20029;-62
2021/04/09 14:22:24;;;;;;;6.82;1.92;;;22.50;26.70;;;;;;10021557;28;20032;-62
2021/04/09 14:27:15;;;;;;;2.00;1.00;;;21.50;27.00;;;;;;10023381;28;20033;-66
2021/04/09 14:32:06;;;;;;;5.00;1.60;;;20.60;26.20;;;;;;10021530;28;20514;-63
2021/04/09 14:36:57;;;;;;;4.63;1.70;;;19.70;25.80;;;;;;10023525;28;20342;-62
2021/04/09 14:41:48;;;;;;;3.08;1.10;;;19.40;25.30;;;;;;10006753;28;20102;-63
2021/04/09 14:46:40;;;;;;;1.60;1.17;;;20.20;24.50;;;;;;10023760;28;20038;-60
2021/04/09 14:51:31;;;;;;;2.95;1.08;;;22.00;23.40;;;;;;10022763;28;20039;-62
2021/04/09 14:56:22;;;;;;;2.83;1.40;;;22.50;23.10;;;;;;10025497;28;20502;-62
2021/04/09 15:01:13;;;;;;;3.42;1.58;;;23.20;23.00;;;;;;10026280;28;20037;-62
2021/04/09 15:06:04;;;;;;;5.50;1.80;;;23.10;23.20;;;;;;10022047;28;20785;-61
2021/04/09 15:10:55;;;;;;;2.72;1.33;;;23.50;23.00;;;;;;10023869;28;20198;-63
2021/04/09 15:15:45;;;;;;;2.45;0.93;;;22.00;23.70;;;;;;10026917;28;22361;-65
2021/04/09 15:20:37;;;;;;;3.90;1.15;;;20.60;24.50;;;;;;10034158;28;20040;-63
2021/04/09 15:25:27;;;;;;;1.08;0.77;;;20.30;24.60;;;;;;10030379;28;20758;-61
2021/04/09 15:30:20;;;;;;;2.58;1.08;;;21.30;24.00;;;;;;10010715;28;20041;-67
2021/04/09 15:35:12;;;;;;;1.83;1.20;;;22.70;23.60;;;;;;10030149;28;20048;-62
2021/04/09 15:40:07;;;;;;;1.67;1.13;;;23.00;23.40;;;;;;10031703;28;20040;-65
2021/04/09 15:44:58;;;;;;;2.65;1.38;;;23.40;23.10;;;;;;10030942;28;20160;-65
2021/04/09 15:49:49;;;;;;;2.15;0.90;;;22.10;23.70;;;;;;10029225;28;20020;-62
2021/04/09 15:54:39;;;;;;;1.88;1.00;;;21.20;24.50;;;;;;10011505;28;20032;-69
2021/04/09 15:59:30;;;;;;;1.80;1.58;;;23.40;23.20;;;;;;10028514;28;20480;-63
2021/04/09 16:04:25;;;;;;;3.58;1.10;;;25.50;21.80;;;;;;10029508;28;20108;-66
2021/04/09 16:09:16;;;;;;;2.03;1.67;;;24.40;22.60;;;;;;10028484;28;20033;-63
2021/04/09 16:14:07;;;;;;;1.63;1.17;;;22.50;23.40;;;;;;10026210;28;20029;-59
2021/04/09 16:18:58;;;;;;;9.52;6.18;;;20.80;24.70;;;;;;10050889;28;20422;-71
2021/04/09 16:23:49;;;;;;;19.08;10.95;;;20.30;25.00;;;;;;10031933;28;20764;-63
2021/04/09 16:28:41;;;;;;;7.00;3.83;;;19.70;25.30;;;;;;10064262;28;20071;-65
2021/04/09 16:33:32;;;;;;;15.18;8.63;;;19.50;25.70;;;;;;10050399;28;20045;-64
2021/04/09 16:38:22;;;;;;;17.88;8.93;;;19.10;25.80;;;;;;10051424;28;20364;-68
2021/04/09 16:43:13;;;;;;;27.60;15.23;;;19.00;26.00;;;;;;10049327;28;20020;-67
2021/04/09 16:48:05;;;;;;;24.27;15.75;;;19.00;26.10;;;;;;10050677;28;20041;-65
2021/04/09 16:52:55;;;;;;;3.03;1.83;;;18.90;26.20;;;;;;10049837;28;20032;-61
2021/04/09 16:57:46;;;;;;;2.53;1.75;;;18.80;26.40;;;;;;10051328;28;20044;-73
2021/04/09 17:02:37;;;;;;;5.57;1.92;;;18.60;26.70;;;;;;10050113;28;20037;-70
2021/04/09 17:07:28;;;;;;;3.70;1.67;;;18.40;26.90;;;;;;10028234;28;20054;-61
2021/04/09 17:12:19;;;;;;;2.78;1.63;;;18.20;27.10;;;;;;9991849;28;20029;-60
2021/04/09 17:17:10;;;;;;;3.00;1.33;;;18.10;27.40;;;;;;10025747;28;20033;-63
2021/04/09 17:22:00;;;;;;;4.47;1.40;;;18.00;27.60;;;;;;10022845;28;20036;-64
2021/04/09 17:26:52;;;;;;;5.32;1.70;;;17.90;27.90;;;;;;10023247;28;20498;-62
2021/04/09 17:31:43;;;;;;;4.63;1.85;;;17.90;28.10;;;;;;10022918;28;20047;-61
2021/04/09 17:36:34;;;;;;;4.05;2.03;;;17.80;28.20;;;;;;10025010;28;20490;-64
2021/04/09 17:41:25;;;;;;;2.90;1.52;;;17.80;28.40;;;;;;10023131;28;20020;-60
2021/04/09 17:46:16;;;;;;;3.20;1.83;;;17.70;28.70;;;;;;10025432;28;20264;-62
2021/04/09 17:51:10;;;;;;;3.35;1.30;;;17.70;28.80;;;;;;10010112;28;20848;-68
2021/04/09 17:56:02;;;;;;;2.10;1.77;;;17.60;28.90;;;;;;10014482;28;21589;-65
2021/04/09 18:00:53;;;;;;;3.60;1.58;;;17.60;29.10;;;;;;10041233;28;20540;-68
2021/04/09 18:05:45;;;;;;;4.07;1.77;;;17.50;29.30;;;;;;10024413;28;20033;-71
2021/04/09 18:10:36;;;;;;;5.63;1.67;;;17.40;29.90;;;;;;10007625;28;20036;-66
2021/04/09 18:15:27;;;;;;;2.70;1.77;;;17.40;29.60;;;;;;10027587;28;20118;-61
2021/04/09 18:20:18;;;;;;;3.47;1.83;;;17.30;29.70;;;;;;10044010;28;20389;-62
2021/04/09 18:25:10;;;;;;;2.97;1.70;;;17.30;29.90;;;;;;10071075;28;20032;-64
2021/04/09 18:30:01;;;;;;;2.78;1.73;;;17.30;30.00;;;;;;10069851;28;20040;-64
2021/04/09 18:34:52;;;;;;;5.13;1.30;;;17.30;30.20;;;;;;10071705;28;20082;-65
2021/04/09 18:39:43;;;;;;;3.20;1.67;;;17.20;30.30;;;;;;10071183;28;20490;-67
2021/04/09 18:44:34;;;;;;;4.32;1.60;;;17.30;30.30;;;;;;10069892;28;20055;-64
2021/04/09 18:49:26;;;;;;;3.95;1.55;;;17.20;30.40;;;;;;10052767;28;20033;-64
2021/04/09 18:54:16;;;;;;;3.45;1.35;;;17.20;30.60;;;;;;10059687;28;20775;-71
2021/04/09 18:59:07;;;;;;;3.08;1.85;;;17.10;30.80;;;;;;10093613;28;20040;-65
2021/04/09 19:04:00;;;;;;;5.78;1.67;;;17.10;31.00;;;;;;10092250;28;20072;-62
2021/04/09 19:08:50;;;;;;;3.80;1.75;;;17.10;31.10;;;;;;10078320;28;20514;-63
2021/04/09 19:13:41;;;;;;;5.70;1.80;;;17.10;31.40;;;;;;10077833;28;20024;-64
2021/04/09 19:18:32;;;;;;;5.75;2.83;;;17.00;31.60;;;;;;10058863;28;21440;-65
2021/04/09 19:23:23;;;;;;;3.42;1.52;;;17.00;32.00;;;;;;10077879;28;20041;-67
2021/04/09 19:28:14;;;;;;;6.38;1.90;;;16.90;32.40;;;;;;10077197;28;20032;-63
2021/04/09 19:33:05;;;;;;;3.72;1.83;;;16.80;32.90;;;;;;10059897;28;20044;-65
2021/04/09 19:37:56;;;;;;;3.38;1.92;;;16.80;33.10;;;;;;10076986;28;20572;-64
2021/04/09 19:42:47;;;;;;;1.52;1.42;;;16.70;33.40;;;;;;10077262;28;20028;-64
2021/04/09 19:47:39;;;;;;;2.65;1.80;;;16.70;33.40;;;;;;10076621;28;20539;-63
2021/04/09 19:52:30;;;;;;;6.10;1.88;;;16.70;33.50;;;;;;10076820;28;20513;-63
2021/04/09 19:57:22;;;;;;;4.78;2.25;;;16.60;33.60;;;;;;10076800;28;20040;-63
2021/04/09 20:02:13;;;;;;;3.35;1.45;;;16.60;33.80;;;;;;10075535;28;20569;-66
2021/04/09 20:07:03;;;;;;;3.30;1.77;;;16.60;34.00;;;;;;10076621;28;20025;-67
2021/04/09 20:11:54;;;;;;;5.03;1.90;;;16.60;34.00;;;;;;10076023;28;20241;-62
2021/04/09 20:16:45;;;;;;;7.22;1.60;;;16.50;34.30;;;;;;10077007;28;20581;-67
2021/04/09 20:21:36;;;;;;;2.92;1.25;;;16.50;34.60;;;;;;10072736;28;20028;-66
2021/04/09 20:26:27;;;;;;;3.25;1.50;;;16.50;35.40;;;;;;10074612;28;20033;-68
2021/04/09 20:31:18;;;;;;;6.63;1.52;;;16.40;35.00;;;;;;10053581;28;20038;-63
2021/04/09 20:36:09;;;;;;;4.80;1.10;;;16.40;35.30;;;;;;10074100;28;20526;-70
2021/04/09 20:41:00;;;;;;;3.05;1.40;;;16.40;35.50;;;;;;10072941;28;20028;-65
2021/04/09 20:45:51;;;;;;;5.47;1.90;;;16.40;36.00;;;;;;10072699;28;21253;-64
2021/04/09 20:50:42;;;;;;;2.92;1.50;;;16.40;35.90;;;;;;10072376;28;20403;-63
2021/04/09 20:55:32;;;;;;;2.17;1.70;;;16.30;36.20;;;;;;10071477;28;20456;-65
2021/04/09 21:00:24;;;;;;;4.97;2.10;;;16.30;36.40;;;;;;10072557;28;20397;-64
2021/04/09 21:05:16;;;;;;;4.55;2.10;;;16.20;36.90;;;;;;10069649;28;20552;-67
2021/04/09 21:10:08;;;;;;;4.03;1.92;;;16.10;37.00;;;;;;10053438;28;20645;-62
2021/04/09 21:14:58;;;;;;;5.20;2.08;;;16.10;37.20;;;;;;10070583;28;21031;-62
2021/04/09 21:19:49;;;;;;;3.58;2.15;;;16.10;37.30;;;;;;10070800;28;20593;-63
2021/04/09 21:24:40;;;;;;;4.18;2.00;;;16.00;37.50;;;;;;10052805;28;20036;-67
2021/04/09 21:29:31;;;;;;;3.58;1.90;;;16.00;37.60;;;;;;10070843;28;20029;-64
2021/04/09 21:34:22;;;;;;;6.13;2.28;;;15.80;37.80;;;;;;10069750;28;20733;-62
2021/04/09 21:39:13;;;;;;;4.18;2.10;;;15.80;37.90;;;;;;10070914;28;20189;-62
2021/04/09 21:44:04;;;;;;;3.97;2.63;;;15.70;37.90;;;;;;10070542;28;20473;-64
2021/04/09 21:48:55;;;;;;;6.15;2.10;;;15.70;38.20;;;;;;10069524;28;20026;-61
2021/04/09 21:53:46;;;;;;;5.43;2.30;;;15.70;38.20;;;;;;10067801;28;20035;-63
2021/04/09 21:58:37;;;;;;;5.20;2.47;;;15.60;38.30;;;;;;10051618;28;20032;-65
2021/04/09 22:03:27;;;;;;;5.00;2.47;;;15.50;38.20;;;;;;10069205;28;20127;-63
2021/04/09 22:08:18;;;;;;;5.10;2.08;;;15.40;38.10;;;;;;10051312;28;20040;-63
2021/04/09 22:13:10;;;;;;;3.30;2.10;;;15.30;38.00;;;;;;10068750;28;20055;-66
2021/04/09 22:18:05;;;;;;;2.97;2.08;;;15.40;37.90;;;;;;10051129;28;20506;-64
2021/04/09 22:22:57;;;;;;;3.60;2.10;;;15.30;37.80;;;;;;10068632;28;20033;-64
2021/04/09 22:27:58;;;;;;;3.55;1.70;;;15.40;37.70;;;;;;10069450;28;20837;-66
2021/04/09 22:32:49;;;;;;;4.68;1.65;;;15.30;37.70;;;;;;10067561;28;20052;-65
2021/04/09 22:37:40;;;;;;;6.80;2.28;;;15.30;37.70;;;;;;10069080;28;20082;-64
2021/04/09 22:42:31;;;;;;;3.17;2.00;;;15.30;37.70;;;;;;10083397;28;20040;-65
2021/04/09 22:47:23;;;;;;;3.33;1.70;;;15.30;37.60;;;;;;10068543;28;20414;-67
2021/04/09 22:52:13;;;;;;;4.28;1.65;;;15.30;37.70;;;;;;10068758;28;20051;-64
2021/04/09 22:57:05;;;;;;;4.03;1.95;;;15.20;37.90;;;;;;10067877;28;20055;-64
2021/04/09 23:01:55;;;;;;;4.20;1.60;;;15.20;37.90;;;;;;10068481;28;20425;-67
2021/04/09 23:06:46;;;;;;;4.07;1.63;;;15.10;38.00;;;;;;10068420;28;20025;-66
2021/04/09 23:11:37;;;;;;;3.28;1.70;;;15.20;38.00;;;;;;10050249;28;20039;-66
2021/04/09 23:16:28;;;;;;;4.47;1.75;;;15.20;37.90;;;;;;10067849;28;20186;-70
2021/04/09 23:21:18;;;;;;;5.80;1.60;;;15.30;37.90;;;;;;10049385;28;20649;-64
2021/04/09 23:26:09;;;;;;;4.20;2.00;;;15.30;37.90;;;;;;10067292;28;20485;-67
2021/04/09 23:31:00;;;;;;;3.08;1.25;;;15.20;38.00;;;;;;10068373;28;20868;-67
2021/04/09 23:35:51;;;;;;;3.25;1.30;;;15.10;38.00;;;;;;10065952;28;20637;-66
2021/04/09 23:40:41;;;;;;;3.40;1.80;;;15.10;38.10;;;;;;10072240;28;20051;-64
2021/04/09 23:45:32;;;;;;;4.05;1.30;;;15.10;38.20;;;;;;10075046;28;20040;-65
2021/04/09 23:50:23;;;;;;;1.95;1.08;;;15.10;38.20;;;;;;10089544;28;22200;-64
2021/04/09 23:55:14;;;;;;;2.05;0.98;;;15.10;38.20;;;;;;10075365;28;20272;-67
